Time;durP1;ratioP1;P1;durP2;ratioP2;P2;SDS_P1;SDS_P2;PMS_P1;PMS_P2;Temp;Humidity;BMP_temperature;BMP_pressure;BME280_temperature;BME280_humidity;BME280_pressure;Samples;Min_cycle;Max_cycle;Signal;HPM_P1;HPM_P2
2024/01/04 00:00:43;;;;;;;3.90;1.60;;;8.70;59.10;;;;;;5023785;28;114227;-82
2024/01/04 00:03:10;;;;;;;3.72;1.77;;;8.70;59.20;;;;;;5003653;28;114753;-82
2024/01/04 00:05:40;;;;;;;3.72;1.27;;;8.70;59.20;;;;;;5002396;28;114532;-82
2024/01/04 00:08:08;;;;;;;3.13;1.20;;;8.70;59.10;;;;;;4984620;28;115133;-82
2024/01/04 00:10:36;;;;;;;3.72;1.35;;;8.70;59.10;;;;;;4984986;28;114646;-83
2024/01/04 00:13:03;;;;;;;3.78;1.60;;;8.70;59.00;;;;;;4986624;28;114521;-82
2024/01/04 00:15:31;;;;;;;3.15;1.25;;;8.70;59.00;;;;;;4985005;28;114648;-83
2024/01/04 00:17:58;;;;;;;4.45;1.50;;;8.70;58.80;;;;;;4985146;28;115051;-82
2024/01/04 00:20:25;;;;;;;3.15;1.13;;;8.70;59.00;;;;;;4984285;28;114573;-83
2024/01/04 00:22:53;;;;;;;3.33;1.27;;;8.80;58.90;;;;;;4985196;28;114748;-82
2024/01/04 00:25:20;;;;;;;3.30;1.20;;;8.80;59.00;;;;;;5001838;28;114531;-82
2024/01/04 00:27:48;;;;;;;2.92;1.17;;;8.70;59.20;;;;;;4983862;28;115308;-83
2024/01/04 00:30:16;;;;;;;2.83;1.20;;;8.80;59.40;;;;;;4985659;28;114922;-82
2024/01/04 00:32:43;;;;;;;3.13;1.05;;;8.80;59.60;;;;;;4985002;28;114621;-82
2024/01/04 00:35:10;;;;;;;3.15;1.08;;;8.80;59.60;;;;;;4968635;28;114568;-83
2024/01/04 00:37:38;;;;;;;2.38;1.00;;;8.70;59.50;;;;;;4985263;28;115249;-83
2024/01/04 00:40:06;;;;;;;2.20;1.02;;;8.80;59.50;;;;;;4985216;28;114823;-82
2024/01/04 00:42:33;;;;;;;3.65;1.00;;;8.80;59.40;;;;;;4986276;28;114487;-82
2024/01/04 00:45:04;;;;;;;2.55;0.77;;;8.80;59.40;;;;;;5006388;28;114607;-83
2024/01/04 00:47:32;;;;;;;3.30;1.15;;;8.80;59.50;;;;;;4988879;28;117993;-82
2024/01/04 00:49:59;;;;;;;5.10;1.00;;;8.80;59.80;;;;;;5005282;28;115032;-82
2024/01/04 00:52:26;;;;;;;3.05;1.00;;;8.80;60.30;;;;;;4971764;28;114559;-82
2024/01/04 00:54:55;;;;;;;2.22;0.93;;;8.80;60.60;;;;;;5008126;28;114820;-82
2024/01/04 00:57:23;;;;;;;2.95;0.90;;;8.80;61.00;;;;;;5009125;28;115228;-82
2024/01/04 00:59:50;;;;;;;3.40;1.00;;;8.80;61.20;;;;;;4984308;28;114819;-82
2024/01/04 01:02:19;;;;;;;2.53;1.00;;;8.70;61.60;;;;;;4984301;28;114520;-82
2024/01/04 01:04:46;;;;;;;4.43;1.40;;;8.70;61.80;;;;;;4984597;28;114538;-82
2024/01/04 01:07:13;;;;;;;2.97;1.17;;;8.70;62.30;;;;;;4983154;28;115018;-82
2024/01/04 01:09:41;;;;;;;2.83;1.00;;;8.70;62.80;;;;;;4983541;28;114737;-82
2024/01/04 01:12:08;;;;;;;4.88;1.40;;;8.70;63.20;;;;;;4985527;28;114500;-82
2024/01/04 01:14:35;;;;;;;3.17;1.20;;;8.70;63.40;;;;;;5004036;28;114594;-82
2024/01/04 01:17:04;;;;;;;3.78;1.00;;;8.60;63.70;;;;;;5021953;28;115239;-82
2024/01/04 01:19:32;;;;;;;5.90;1.38;;;8.60;64.20;;;;;;5007500;28;117183;-82
2024/01/04 01:21:59;;;;;;;4.75;1.00;;;8.60;64.30;;;;;;5008675;28;114551;-82
2024/01/04 01:24:27;;;;;;;3.40;0.88;;;8.60;64.70;;;;;;5007327;28;114377;-82
2024/01/04 01:26:54;;;;;;;2.85;0.80;;;8.50;64.90;;;;;;5003632;28;115296;-82
2024/01/04 01:29:21;;;;;;;3.20;1.10;;;8.50;65.20;;;;;;5019946;28;114848;-82
2024/01/04 01:31:49;;;;;;;2.33;0.90;;;8.50;65.40;;;;;;5003652;28;114823;-82
2024/01/04 01:34:16;;;;;;;3.15;1.10;;;8.50;65.70;;;;;;4987609;28;114513;-83
2024/01/04 01:36:44;;;;;;;2.65;1.05;;;8.40;65.70;;;;;;5019786;28;116593;-81
2024/01/04 01:39:11;;;;;;;2.40;0.90;;;8.40;66.00;;;;;;5002904;28;114578;-82
2024/01/04 01:41:39;;;;;;;1.67;0.73;;;8.40;66.10;;;;;;5019571;28;114751;-82
2024/01/04 01:44:06;;;;;;;3.85;1.10;;;8.40;66.40;;;;;;5002856;28;114651;-83
2024/01/04 01:46:34;;;;;;;1.77;0.82;;;8.30;66.60;;;;;;5002761;28;115314;-82
2024/01/04 01:49:01;;;;;;;1.58;0.73;;;8.30;66.70;;;;;;5003494;28;114688;-83
2024/01/04 01:51:29;;;;;;;3.22;1.35;;;8.30;66.70;;;;;;4991613;28;114534;-82
2024/01/04 01:53:56;;;;;;;1.65;0.80;;;8.30;66.70;;;;;;4977579;28;114466;-82
2024/01/04 01:56:23;;;;;;;3.33;1.50;;;8.30;66.70;;;;;;4992776;28;115183;-83
2024/01/04 01:58:51;;;;;;;3.65;0.93;;;8.40;67.00;;;;;;4990736;28;114947;-83
2024/01/04 02:01:18;;;;;;;3.00;1.20;;;8.30;67.20;;;;;;4968328;28;114640;-82
2024/01/04 02:03:46;;;;;;;1.77;0.80;;;8.30;67.20;;;;;;4985174;28;114409;-83
2024/01/04 02:06:13;;;;;;;2.78;0.85;;;8.30;67.20;;;;;;4966554;28;115127;-83
2024/01/04 02:08:41;;;;;;;3.17;1.10;;;8.20;67.20;;;;;;4982357;28;115775;-83
2024/01/04 02:11:08;;;;;;;3.03;0.90;;;8.20;67.20;;;;;;4967378;28;114445;-82
2024/01/04 02:13:36;;;;;;;1.55;0.80;;;8.20;67.30;;;;;;4984183;28;114528;-82
2024/01/04 02:16:03;;;;;;;1.90;0.70;;;8.20;67.20;;;;;;4983938;28;115306;-83
2024/01/04 02:18:31;;;;;;;2.08;0.90;;;8.20;67.20;;;;;;4998580;28;118543;-82
2024/01/04 02:20:58;;;;;;;3.92;0.90;;;8.10;66.80;;;;;;4966714;28;115052;-82
2024/01/04 02:23:26;;;;;;;1.80;0.70;;;8.10;66.70;;;;;;4984303;28;114529;-82
2024/01/04 02:25:53;;;;;;;1.70;0.88;;;8.10;66.50;;;;;;4982563;28;115060;-82
2024/01/04 02:28:21;;;;;;;1.60;0.80;;;8.10;66.50;;;;;;4965706;28;115269;-82
2024/01/04 02:30:48;;;;;;;1.90;0.65;;;8.10;66.60;;;;;;5019478;27;114874;-82
2024/01/04 02:33:16;;;;;;;3.80;1.13;;;8.00;66.60;;;;;;4986819;28;114605;-81
2024/01/04 02:35:44;;;;;;;2.60;0.90;;;8.00;66.80;;;;;;4985991;28;115592;-81
2024/01/04 02:38:12;;;;;;;3.65;1.35;;;8.00;67.00;;;;;;4969557;28;116264;-81
2024/01/04 02:40:39;;;;;;;3.67;1.35;;;7.90;67.10;;;;;;4970511;28;114509;-81
2024/01/04 02:43:09;;;;;;;3.78;1.27;;;8.00;67.20;;;;;;4970366;28;114553;-81
2024/01/04 02:45:37;;;;;;;4.97;1.00;;;7.90;67.30;;;;;;4985220;28;115155;-81
2024/01/04 02:48:05;;;;;;;3.20;1.30;;;7.90;67.30;;;;;;4985672;28;114637;-81
2024/01/04 02:50:33;;;;;;;2.60;1.20;;;8.00;67.30;;;;;;4986663;28;114756;-81
2024/01/04 02:53:00;;;;;;;4.28;0.90;;;7.90;67.30;;;;;;4987872;28;114408;-82
2024/01/04 02:55:28;;;;;;;3.33;1.00;;;7.90;67.10;;;;;;4952799;28;115303;-81
2024/01/04 02:57:55;;;;;;;3.33;0.88;;;7.90;67.00;;;;;;4985192;28;115854;-82
2024/01/04 03:06:22;;;;;;;1.98;1.00;;;7.90;66.50;;;;;;4994470;28;114711;-81
2024/01/04 03:08:50;;;;;;;2.58;0.95;;;7.70;66.70;;;;;;5009896;28;115170;-80
2024/01/04 03:11:17;;;;;;;3.83;0.90;;;7.70;66.80;;;;;;4988913;28;114845;-81
2024/01/04 03:13:49;;;;;;;2.63;1.10;;;7.70;66.90;;;;;;5005917;28;114609;-81
2024/01/04 03:16:19;;;;;;;3.15;0.95;;;7.70;66.90;;;;;;5005705;28;114358;-80
2024/01/04 03:18:51;;;;;;;1.75;0.80;;;7.70;67.00;;;;;;5005233;28;115090;-81
2024/01/04 03:21:20;;;;;;;3.65;1.40;;;7.80;66.80;;;;;;5005089;28;114705;-82
2024/01/04 03:23:47;;;;;;;2.88;0.90;;;7.70;66.90;;;;;;5006059;28;114498;-81
2024/01/04 03:26:15;;;;;;;2.60;0.80;;;7.70;66.80;;;;;;5006971;28;114458;-81
2024/01/04 03:28:42;;;;;;;2.10;0.70;;;7.70;66.70;;;;;;5006283;28;115123;-80
2024/01/04 03:31:09;;;;;;;1.75;0.80;;;7.80;66.70;;;;;;5006526;28;114672;-81
2024/01/04 03:33:37;;;;;;;3.13;0.80;;;7.80;66.60;;;;;;5005867;28;114484;-81
2024/01/04 03:36:07;;;;;;;2.17;1.10;;;7.80;66.40;;;;;;4988796;28;114610;-80
2024/01/04 03:38:34;;;;;;;2.13;0.88;;;7.80;66.30;;;;;;4972096;28;115753;-80
2024/01/04 03:41:02;;;;;;;2.22;1.10;;;7.80;66.00;;;;;;4954196;28;117399;-81
2024/01/04 03:43:31;;;;;;;2.80;1.20;;;7.80;66.10;;;;;;5005766;28;114422;-81
2024/01/04 03:45:58;;;;;;;2.22;1.00;;;7.80;66.00;;;;;;5010022;28;114434;-81
2024/01/04 03:48:26;;;;;;;3.00;1.23;;;7.80;66.00;;;;;;5030273;28;114831;-81
2024/01/04 03:50:56;;;;;;;4.80;1.33;;;7.80;65.80;;;;;;5006167;28;114667;-81
2024/01/04 03:53:26;;;;;;;3.38;1.10;;;7.80;65.80;;;;;;5007417;28;114675;-81
2024/01/04 03:55:56;;;;;;;2.72;1.17;;;7.80;65.70;;;;;;5007951;28;114326;-81
2024/01/04 03:58:23;;;;;;;1.98;0.90;;;7.80;65.60;;;;;;5005755;28;115879;-81
2024/01/04 04:00:56;;;;;;;2.80;1.10;;;7.70;65.70;;;;;;5005765;28;114663;-81
2024/01/04 04:03:23;;;;;;;1.80;0.88;;;7.80;65.70;;;;;;5005012;28;114712;-81
2024/01/04 04:05:50;;;;;;;4.63;1.58;;;7.80;65.70;;;;;;4956423;28;114340;-82
2024/01/04 04:08:18;;;;;;;4.70;1.55;;;7.80;65.70;;;;;;5005761;28;114934;-81
2024/01/04 04:10:45;;;;;;;4.55;1.80;;;7.80;65.70;;;;;;5004232;28;118551;-81
2024/01/04 04:13:13;;;;;;;4.68;1.33;;;7.80;65.70;;;;;;5006209;28;114378;-82
2024/01/04 04:15:40;;;;;;;5.35;1.42;;;7.80;65.70;;;;;;5004827;28;114605;-80
2024/01/04 04:18:07;;;;;;;3.40;1.38;;;7.80;65.60;;;;;;4955256;28;115286;-80
2024/01/04 04:20:35;;;;;;;3.08;1.40;;;7.70;65.70;;;;;;5004733;28;114739;-80
2024/01/04 04:23:03;;;;;;;4.85;1.55;;;7.80;65.70;;;;;;5006648;28;114317;-80
2024/01/04 04:25:31;;;;;;;5.10;1.45;;;7.80;65.70;;;;;;5006552;28;114577;-80
2024/01/04 04:27:58;;;;;;;6.68;2.03;;;7.80;65.70;;;;;;5004228;28;116676;-80
2024/01/04 04:30:27;;;;;;;5.20;1.60;;;7.70;65.70;;;;;;5005226;28;114606;-81
2024/01/04 04:32:54;;;;;;;4.45;1.38;;;7.70;65.80;;;;;;5005192;28;114741;-80
2024/01/04 04:35:24;;;;;;;4.78;1.77;;;7.80;65.70;;;;;;5006350;28;114282;-83
2024/01/04 04:37:53;;;;;;;6.00;1.70;;;7.70;65.60;;;;;;5005159;28;115206;-81
2024/01/04 04:40:20;;;;;;;8.70;2.63;;;7.70;65.70;;;;;;5005161;28;114525;-81
2024/01/04 04:42:48;;;;;;;4.45;1.70;;;7.80;65.70;;;;;;5006156;28;114560;-80
2024/01/04 04:45:15;;;;;;;6.95;1.77;;;7.80;65.70;;;;;;5006403;28;114420;-82
2024/01/04 04:47:43;;;;;;;3.35;1.60;;;7.80;65.70;;;;;;5005108;28;115621;-81
2024/01/04 04:50:10;;;;;;;3.30;1.00;;;7.80;65.60;;;;;;5010855;28;114599;-80
2024/01/04 04:52:37;;;;;;;3.90;1.15;;;7.80;65.60;;;;;;5005805;28;114605;-82
2024/01/04 04:55:05;;;;;;;3.08;1.30;;;7.90;65.60;;;;;;4988306;28;114676;-81
2024/01/04 04:57:36;;;;;;;4.55;1.48;;;7.80;65.50;;;;;;5003897;28;115473;-82
2024/01/04 05:00:04;;;;;;;3.47;1.42;;;7.90;65.50;;;;;;4970342;28;116511;-82
2024/01/04 05:02:31;;;;;;;3.88;1.40;;;7.80;65.50;;;;;;5005978;28;114612;-82
2024/01/04 05:04:59;;;;;;;4.65;1.20;;;7.80;65.50;;;;;;5004609;28;114802;-82
2024/01/04 05:07:26;;;;;;;3.25;1.25;;;7.80;65.60;;;;;;5004741;28;115158;-81
2024/01/04 05:09:53;;;;;;;2.72;1.20;;;7.80;65.70;;;;;;5003383;28;117258;-82
2024/01/04 05:12:21;;;;;;;5.28;2.30;;;7.80;65.80;;;;;;5005718;28;114642;-82
2024/01/04 05:14:48;;;;;;;4.07;1.58;;;7.80;65.90;;;;;;5004248;28;114807;-81
2024/01/04 05:17:16;;;;;;;2.92;1.10;;;7.80;66.00;;;;;;5003573;28;115672;-82
2024/01/04 05:19:46;;;;;;;4.40;1.30;;;7.90;66.00;;;;;;5003126;28;114900;-83
2024/01/04 05:22:13;;;;;;;4.00;1.30;;;7.90;66.00;;;;;;5005571;28;114951;-82
2024/01/04 05:24:41;;;;;;;5.13;1.42;;;7.90;66.00;;;;;;5005321;28;114485;-82
2024/01/04 05:27:08;;;;;;;3.92;1.38;;;7.90;65.90;;;;;;5004349;28;115349;-82
2024/01/04 05:29:35;;;;;;;2.60;0.90;;;7.80;65.70;;;;;;5002958;28;114631;-82
2024/01/04 05:32:03;;;;;;;3.67;1.55;;;7.80;65.70;;;;;;4971353;28;114406;-82
2024/01/04 05:34:32;;;;;;;4.43;1.40;;;7.90;65.70;;;;;;5005854;28;114810;-82
2024/01/04 05:37:03;;;;;;;3.88;1.00;;;7.90;65.70;;;;;;5003723;28;115076;-81
2024/01/04 05:39:35;;;;;;;2.80;1.10;;;8.00;65.50;;;;;;5021472;28;114713;-81
2024/01/04 05:42:02;;;;;;;2.35;1.10;;;7.90;65.40;;;;;;5019196;28;114359;-82
2024/01/04 05:44:30;;;;;;;2.55;1.13;;;7.90;65.40;;;;;;4987892;28;114432;-83
2024/01/04 05:46:57;;;;;;;3.47;1.27;;;7.90;65.20;;;;;;5004286;28;115196;-80
2024/01/04 05:49:24;;;;;;;3.10;0.98;;;7.90;65.10;;;;;;5003812;28;115802;-81
2024/01/04 05:51:52;;;;;;;1.98;0.65;;;7.90;65.00;;;;;;4971586;28;114821;-82
2024/01/04 05:54:19;;;;;;;3.15;0.80;;;7.90;64.70;;;;;;4988002;28;114741;-82
2024/01/04 05:56:47;;;;;;;1.50;0.70;;;7.90;64.60;;;;;;5004138;28;115081;-81
2024/01/04 05:59:14;;;;;;;1.80;0.80;;;8.00;64.50;;;;;;4969906;28;117023;-81
2024/01/04 06:01:41;;;;;;;1.38;0.70;;;7.90;64.20;;;;;;5005127;28;114684;-82
2024/01/04 06:04:09;;;;;;;1.65;0.70;;;8.00;64.00;;;;;;5002489;28;114921;-82
2024/01/04 06:06:36;;;;;;;2.90;0.98;;;8.00;64.00;;;;;;5001565;28;117620;-82
2024/01/04 06:09:03;;;;;;;2.08;0.80;;;8.00;64.00;;;;;;5004147;28;115783;-82
2024/01/04 06:11:31;;;;;;;2.22;0.60;;;8.00;63.90;;;;;;5003531;28;114577;-83
2024/01/04 06:13:58;;;;;;;2.20;0.90;;;8.00;63.80;;;;;;4986916;28;114884;-82
2024/01/04 06:16:26;;;;;;;1.80;0.70;;;7.90;63.80;;;;;;5003989;28;115372;-82
2024/01/04 06:18:54;;;;;;;1.77;0.85;;;8.00;63.70;;;;;;5002927;28;115809;-82
2024/01/04 06:21:21;;;;;;;1.75;0.70;;;8.00;63.80;;;;;;5003804;28;114756;-82
2024/01/04 06:23:49;;;;;;;1.50;0.70;;;8.00;63.60;;;;;;5003785;28;114620;-82
2024/01/04 06:26:19;;;;;;;1.08;0.70;;;8.00;63.60;;;;;;5002674;28;115698;-82
2024/01/04 06:28:46;;;;;;;4.25;0.80;;;7.90;63.50;;;;;;5003739;28;114765;-83
2024/01/04 06:31:14;;;;;;;3.47;1.20;;;8.00;63.40;;;;;;4992282;28;114631;-82
2024/01/04 06:33:41;;;;;;;1.83;0.82;;;8.00;63.40;;;;;;4994369;28;114634;-81
2024/01/04 06:36:09;;;;;;;2.42;1.05;;;8.00;63.40;;;;;;5004101;28;114989;-82
2024/01/04 06:38:36;;;;;;;2.38;0.75;;;7.90;63.30;;;;;;4978368;28;115097;-81
2024/01/04 06:41:04;;;;;;;2.53;1.70;;;8.00;63.30;;;;;;5012601;28;115666;-82
2024/01/04 06:43:31;;;;;;;4.10;1.45;;;7.90;63.20;;;;;;4995610;28;114654;-82
2024/01/04 06:45:58;;;;;;;2.28;0.80;;;8.00;63.30;;;;;;4990662;28;115025;-82
2024/01/04 06:48:27;;;;;;;3.08;0.80;;;7.90;63.20;;;;;;4965880;28;117973;-81
2024/01/04 06:50:54;;;;;;;1.55;0.60;;;8.00;63.30;;;;;;4995212;28;114717;-81
2024/01/04 06:53:22;;;;;;;1.95;0.68;;;8.00;63.10;;;;;;4993016;28;117873;-82
2024/01/04 06:55:49;;;;;;;3.65;0.90;;;7.90;63.20;;;;;;4992719;28;117887;-82
2024/01/04 06:58:16;;;;;;;2.15;0.70;;;7.90;63.10;;;;;;4994391;28;115136;-82
2024/01/04 07:00:44;;;;;;;2.10;1.00;;;7.90;63.10;;;;;;4993750;28;114558;-82
2024/01/04 07:03:11;;;;;;;2.88;1.00;;;7.90;63.20;;;;;;4993957;28;114655;-83
2024/01/04 07:05:39;;;;;;;3.55;1.52;;;7.90;63.20;;;;;;4994086;28;115117;-81
2024/01/04 07:08:07;;;;;;;2.25;0.70;;;7.90;63.30;;;;;;4980905;28;115234;-82
2024/01/04 07:10:34;;;;;;;2.88;0.90;;;7.90;63.30;;;;;;4996654;28;114510;-82
2024/01/04 07:13:02;;;;;;;2.67;0.93;;;7.90;63.30;;;;;;4994415;28;117281;-82
2024/01/04 07:15:29;;;;;;;4.10;1.00;;;7.90;63.40;;;;;;4990825;28;115144;-81
2024/01/04 07:17:57;;;;;;;1.92;0.68;;;7.90;63.50;;;;;;4978518;28;114613;-82
2024/01/04 07:20:24;;;;;;;2.13;0.80;;;7.90;63.40;;;;;;4991990;28;115101;-83
2024/01/04 07:22:53;;;;;;;2.83;0.80;;;7.80;63.40;;;;;;4993690;28;114535;-82
2024/01/04 07:25:22;;;;;;;2.03;0.85;;;7.80;63.50;;;;;;4991971;28;115164;-82
2024/01/04 07:27:50;;;;;;;1.75;0.70;;;7.80;63.60;;;;;;4995435;28;114960;-82
2024/01/04 07:30:17;;;;;;;2.80;1.00;;;7.80;63.70;;;;;;4996044;28;114597;-83
2024/01/04 07:32:46;;;;;;;1.92;0.90;;;7.80;63.70;;;;;;4978699;28;114535;-82
2024/01/04 07:35:15;;;;;;;2.10;0.60;;;7.80;63.80;;;;;;4981918;28;119233;-84
2024/01/04 07:37:44;;;;;;;2.60;0.52;;;7.80;63.70;;;;;;4978975;28;117584;-82
2024/01/04 07:40:12;;;;;;;0.77;0.50;;;7.80;63.70;;;;;;5000974;28;114784;-83
2024/01/04 07:42:40;;;;;;;1.60;0.70;;;7.80;63.70;;;;;;4985106;28;114626;-83
2024/01/04 07:45:11;;;;;;;2.40;0.60;;;7.80;63.80;;;;;;4995874;28;116657;-81
2024/01/04 07:47:41;;;;;;;1.70;0.47;;;7.80;63.70;;;;;;4993166;28;114591;-83
2024/01/04 07:50:12;;;;;;;1.60;0.60;;;7.80;63.70;;;;;;4994754;28;114648;-83
2024/01/04 07:52:42;;;;;;;2.03;0.80;;;7.90;63.70;;;;;;4997322;28;114878;-82
2024/01/04 07:55:10;;;;;;;2.08;1.00;;;7.80;63.80;;;;;;4996135;28;115366;-84
2024/01/04 07:57:37;;;;;;;1.80;0.60;;;7.90;63.80;;;;;;4995841;28;116955;-81
2024/01/04 08:00:09;;;;;;;3.03;0.90;;;7.90;63.80;;;;;;4996968;28;114621;-83
2024/01/04 08:02:39;;;;;;;;;;;7.90;63.80;;;;;;4982057;28;115004;-83
2024/01/04 08:05:09;;;;;;;2.13;0.90;;;7.90;63.70;;;;;;4993857;28;118011;-84
2024/01/04 08:07:37;;;;;;;2.70;1.10;;;7.90;63.90;;;;;;4994351;28;114676;-83
2024/01/04 08:10:05;;;;;;;2.03;0.90;;;8.00;63.70;;;;;;4979363;28;114537;-81
2024/01/04 08:12:33;;;;;;;2.17;0.90;;;8.00;63.50;;;;;;4995787;28;114735;-82
2024/01/04 08:15:01;;;;;;;2.97;0.93;;;8.10;63.40;;;;;;4994710;28;115397;-81
2024/01/04 08:17:28;;;;;;;2.67;1.20;;;8.10;63.40;;;;;;4994111;28;114923;-82
2024/01/04 08:19:58;;;;;;;2.58;1.05;;;8.10;63.30;;;;;;4994326;28;114439;-83
2024/01/04 08:22:26;;;;;;;2.92;1.15;;;8.10;63.20;;;;;;4995508;28;114801;-81
2024/01/04 08:24:53;;;;;;;3.13;1.17;;;8.10;63.00;;;;;;4976534;28;116539;-83
2024/01/04 08:27:20;;;;;;;2.72;1.00;;;8.20;62.60;;;;;;4991380;28;114856;-82
2024/01/04 08:29:51;;;;;;;4.70;1.02;;;8.20;62.50;;;;;;4993446;28;114729;-82
2024/01/04 08:32:19;;;;;;;3.08;1.08;;;8.20;62.40;;;;;;4992705;28;114470;-83
2024/01/04 08:34:47;;;;;;;2.95;0.88;;;8.20;62.40;;;;;;4999389;28;115296;-83
2024/01/04 08:37:18;;;;;;;3.35;1.00;;;8.20;62.30;;;;;;4975863;28;114937;-81
2024/01/04 08:39:46;;;;;;;2.70;0.90;;;8.20;62.30;;;;;;4970559;28;114555;-83
2024/01/04 08:42:14;;;;;;;2.47;0.85;;;8.20;62.20;;;;;;4994828;28;114638;-83
2024/01/04 08:44:46;;;;;;;1.73;0.60;;;8.20;62.10;;;;;;4993039;28;115478;-83
2024/01/04 08:47:14;;;;;;;1.50;0.57;;;8.30;62.00;;;;;;4976435;28;115004;-83
2024/01/04 08:49:41;;;;;;;2.30;0.93;;;8.30;61.80;;;;;;4995661;28;114792;-81
2024/01/04 08:52:11;;;;;;;1.45;0.70;;;8.30;61.60;;;;;;4993495;28;114458;-82
2024/01/04 08:54:41;;;;;;;1.77;0.60;;;8.20;61.40;;;;;;4994406;28;115450;-82
2024/01/04 08:57:11;;;;;;;1.67;0.50;;;8.20;61.50;;;;;;4993483;28;114845;-83
2024/01/04 08:59:38;;;;;;;2.33;0.73;;;8.30;61.50;;;;;;4994625;28;114556;-83
2024/01/04 09:02:05;;;;;;;1.50;0.60;;;8.30;61.50;;;;;;4995334;28;114855;-83
2024/01/04 09:04:35;;;;;;;3.10;0.60;;;8.30;61.50;;;;;;4996747;28;115028;-83
2024/01/04 09:07:03;;;;;;;2.28;0.73;;;8.30;61.50;;;;;;4963225;28;115997;-81
2024/01/04 09:09:30;;;;;;;1.75;0.60;;;8.30;61.30;;;;;;4997873;28;114665;-82
2024/01/04 09:11:57;;;;;;;1.50;0.68;;;8.30;61.30;;;;;;4991688;28;114451;-83
2024/01/04 09:14:25;;;;;;;2.78;0.75;;;8.30;61.20;;;;;;4987255;28;115437;-82
2024/01/04 09:16:52;;;;;;;2.10;1.10;;;8.30;61.20;;;;;;4991695;28;117765;-82
2024/01/04 09:19:20;;;;;;;2.28;1.15;;;8.30;61.10;;;;;;4972674;28;114676;-83
2024/01/04 09:21:49;;;;;;;1.63;0.77;;;8.30;61.00;;;;;;4992552;28;114412;-80
2024/01/04 09:24:20;;;;;;;2.42;1.15;;;8.30;61.20;;;;;;4994001;28;115187;-82
2024/01/04 09:26:48;;;;;;;2.80;1.27;;;8.20;61.50;;;;;;4979509;28;115178;-80
2024/01/04 09:29:18;;;;;;;2.50;1.45;;;8.20;61.70;;;;;;5003648;28;114430;-81
2024/01/04 09:31:45;;;;;;;2.72;1.08;;;8.20;61.80;;;;;;4993995;28;114577;-81
2024/01/04 09:34:12;;;;;;;2.20;0.90;;;8.20;61.80;;;;;;4993661;28;115491;-81
2024/01/04 09:36:40;;;;;;;2.15;1.00;;;8.20;61.80;;;;;;4992224;28;114582;-81
2024/01/04 09:39:17;;;;;;;2.65;1.15;;;8.20;61.80;;;;;;4992183;28;114629;-80
2024/01/04 09:41:45;;;;;;;2.28;1.00;;;8.20;62.30;;;;;;4992910;28;114562;-80
2024/01/04 09:44:13;;;;;;;2.25;0.90;;;8.20;62.20;;;;;;4974473;28;115545;-81
2024/01/04 09:46:41;;;;;;;1.80;0.90;;;8.20;62.30;;;;;;4962693;28;114910;-82
2024/01/04 09:49:09;;;;;;;2.17;0.80;;;8.20;62.30;;;;;;4993450;28;114447;-81
2024/01/04 09:51:39;;;;;;;1.80;0.90;;;8.20;62.30;;;;;;4993799;28;114703;-81
2024/01/04 09:54:08;;;;;;;2.85;0.98;;;8.10;62.30;;;;;;4993435;28;115048;-81
2024/01/04 09:56:47;;;;;;;1.73;0.80;;;8.10;62.40;;;;;;4992959;28;115866;-81
2024/01/04 09:59:15;;;;;;;2.72;1.15;;;8.10;62.40;;;;;;4994283;28;114697;-81
2024/01/04 10:01:43;;;;;;;2.38;1.10;;;8.10;62.50;;;;;;4994894;28;114724;-81
2024/01/04 10:04:12;;;;;;;2.00;1.00;;;8.00;62.50;;;;;;4995144;28;115212;-82
2024/01/04 10:06:44;;;;;;;2.17;0.90;;;8.00;62.70;;;;;;4974524;28;116081;-80
2024/01/04 10:09:45;;;;;;;1.77;0.90;;;8.10;62.60;;;;;;4972103;28;114512;-82
2024/01/04 10:12:12;;;;;;;3.67;1.23;;;8.10;62.80;;;;;;4971374;28;115540;-80
2024/01/04 10:14:42;;;;;;;2.85;1.20;;;8.00;62.80;;;;;;4965884;28;115552;-81
2024/01/04 10:17:10;;;;;;;2.45;1.10;;;8.10;62.80;;;;;;4981720;28;114791;-80
2024/01/04 10:19:38;;;;;;;2.63;1.00;;;8.00;62.80;;;;;;5000100;28;114609;-80
2024/01/04 10:22:06;;;;;;;2.13;1.00;;;8.00;62.80;;;;;;5014037;28;114531;-83
2024/01/04 10:24:37;;;;;;;3.22;1.30;;;8.10;62.70;;;;;;4982127;28;116538;-82
2024/01/04 10:27:05;;;;;;;2.20;1.10;;;8.00;62.90;;;;;;4990594;28;114638;-80
2024/01/04 10:29:35;;;;;;;2.40;1.10;;;8.00;62.70;;;;;;4995783;28;114795;-82
2024/01/04 10:32:04;;;;;;;5.15;0.88;;;8.00;62.70;;;;;;5001107;28;115631;-81
2024/01/04 10:34:34;;;;;;;1.27;0.70;;;8.10;62.70;;;;;;5006634;28;116396;-82
2024/01/04 10:37:17;;;;;;;2.10;0.88;;;8.00;62.70;;;;;;5009618;27;114935;-81
2024/01/04 10:39:59;;;;;;;1.67;0.90;;;8.00;62.90;;;;;;5008878;28;114551;-81
2024/01/04 10:42:27;;;;;;;6.10;1.30;;;8.00;62.90;;;;;;4982921;28;114690;-83
2024/01/04 10:44:58;;;;;;;2.15;0.95;;;8.00;63.00;;;;;;5008792;28;115144;-81
2024/01/04 10:47:27;;;;;;;2.55;1.00;;;8.00;62.90;;;;;;5008283;27;115650;-82
2024/01/04 10:49:58;;;;;;;2.65;1.02;;;8.00;63.10;;;;;;5022698;28;114695;-81
2024/01/04 10:52:32;;;;;;;2.00;0.85;;;8.00;63.10;;;;;;4987270;28;114643;-81
2024/01/04 10:55:02;;;;;;;2.55;1.05;;;8.00;63.10;;;;;;4984962;28;115101;-80
2024/01/04 10:57:31;;;;;;;3.00;1.20;;;8.00;62.90;;;;;;4984226;28;115768;-80
2024/01/04 10:59:59;;;;;;;8.32;2.65;;;8.00;63.00;;;;;;4987178;28;114817;-81
2024/01/04 11:02:29;;;;;;;3.80;1.50;;;7.90;63.00;;;;;;4971336;28;114554;-81
2024/01/04 11:04:56;;;;;;;4.40;2.22;;;8.00;63.00;;;;;;4968561;28;114832;-81
2024/01/04 11:07:24;;;;;;;3.92;1.50;;;8.00;63.00;;;;;;4988749;28;119263;-81
2024/01/04 11:09:51;;;;;;;3.05;1.65;;;8.00;63.10;;;;;;4985593;28;114682;-81
2024/01/04 11:12:18;;;;;;;3.00;0.98;;;8.10;63.10;;;;;;4985429;28;115033;-81
2024/01/04 11:14:46;;;;;;;2.22;0.90;;;8.10;63.20;;;;;;4985176;28;115129;-82
2024/01/04 11:17:38;;;;;;;1.45;0.80;;;8.00;63.20;;;;;;5006314;28;114893;-80
2024/01/04 11:20:16;;;;;;;2.45;0.95;;;8.10;63.40;;;;;;5007071;28;114763;-82
2024/01/04 11:23:14;;;;;;;7.22;0.90;;;8.00;63.60;;;;;;5001474;28;114635;-81
2024/01/04 11:26:36;;;;;;;1.83;0.80;;;8.10;63.50;;;;;;5004832;28;115030;-81
2024/01/04 11:29:06;;;;;;;4.35;0.85;;;8.10;63.50;;;;;;5000951;28;114700;-80
2024/01/04 11:31:34;;;;;;;1.50;0.70;;;8.10;63.80;;;;;;4992119;28;114642;-82
2024/01/04 11:34:04;;;;;;;2.25;1.00;;;8.10;63.90;;;;;;4990064;28;114612;-82
2024/01/04 11:36:33;;;;;;;2.90;1.20;;;8.10;64.00;;;;;;4976069;28;116155;-82
2024/01/04 11:39:00;;;;;;;2.65;1.10;;;8.10;64.00;;;;;;5011856;28;114714;-81
2024/01/04 11:41:37;;;;;;;2.45;1.48;;;8.10;63.90;;;;;;4981918;28;114454;-81
2024/01/04 11:44:16;;;;;;;4.53;1.58;;;8.20;63.60;;;;;;4988206;28;114558;-82
2024/01/04 11:46:43;;;;;;;4.70;1.83;;;8.20;63.70;;;;;;4979104;28;115147;-84
2024/01/04 11:49:13;;;;;;;4.35;1.52;;;8.20;63.60;;;;;;4969148;28;117436;-83
2024/01/04 11:51:47;;;;;;;5.05;2.15;;;8.20;63.60;;;;;;4985966;28;115293;-81
2024/01/04 11:54:17;;;;;;;5.10;1.98;;;8.20;63.40;;;;;;4985626;28;114457;-80
2024/01/04 11:56:46;;;;;;;6.32;2.58;;;8.20;63.50;;;;;;4998701;28;115566;-81
2024/01/04 11:59:15;;;;;;;10.10;3.30;;;8.20;63.40;;;;;;4999671;28;114932;-80
2024/01/04 12:01:43;;;;;;;10.40;2.90;;;8.20;63.50;;;;;;4970704;28;114705;-81
2024/01/04 12:04:13;;;;;;;7.70;2.75;;;8.20;63.50;;;;;;4968523;28;114635;-82
2024/01/04 12:06:43;;;;;;;5.78;1.98;;;8.20;63.50;;;;;;4998149;28;115029;-81
2024/01/04 12:09:15;;;;;;;5.00;1.90;;;8.20;63.50;;;;;;5004766;28;115551;-81
2024/01/04 12:11:54;;;;;;;4.50;1.57;;;8.20;63.40;;;;;;4989252;28;115193;-81
2024/01/04 12:14:25;;;;;;;4.20;1.33;;;8.20;63.40;;;;;;5005778;28;114457;-82
2024/01/04 12:16:57;;;;;;;4.07;1.50;;;8.20;63.30;;;;;;5005388;28;115040;-81
2024/01/04 12:19:24;;;;;;;3.85;1.80;;;8.20;63.50;;;;;;4995102;28;114875;-82
2024/01/04 12:21:55;;;;;;;4.60;1.85;;;8.20;63.60;;;;;;4984652;28;114449;-83
2024/01/04 12:24:23;;;;;;;4.35;1.80;;;8.20;63.70;;;;;;4997708;28;114814;-81
2024/01/04 12:26:50;;;;;;;3.53;1.70;;;8.20;63.80;;;;;;4999874;28;115600;-82
2024/01/04 12:29:21;;;;;;;4.47;1.60;;;8.20;63.90;;;;;;4967520;28;114860;-82
2024/01/04 12:31:50;;;;;;;4.55;1.77;;;8.20;63.80;;;;;;4986938;28;114618;-82
2024/01/04 12:34:21;;;;;;;5.80;1.98;;;8.20;63.80;;;;;;4988576;28;114682;-82
2024/01/04 12:36:51;;;;;;;3.85;1.60;;;8.20;63.90;;;;;;5004917;28;115729;-81
2024/01/04 12:39:20;;;;;;;5.70;2.65;;;8.20;63.80;;;;;;4999700;28;115143;-82
2024/01/04 12:41:48;;;;;;;6.78;3.30;;;8.20;63.80;;;;;;5004871;28;114763;-82
2024/01/04 12:44:19;;;;;;;4.75;2.28;;;8.20;63.80;;;;;;5004796;28;114657;-82
2024/01/04 12:46:47;;;;;;;5.05;2.15;;;8.20;63.90;;;;;;5005009;28;115030;-81
2024/01/04 12:49:15;;;;;;;3.42;1.50;;;8.20;63.70;;;;;;4996326;28;114675;-82
2024/01/04 12:51:48;;;;;;;3.75;1.50;;;8.20;63.70;;;;;;4985963;28;114360;-83
2024/01/04 12:54:16;;;;;;;2.92;1.42;;;8.20;63.80;;;;;;4985284;28;114673;-84
2024/01/04 12:56:43;;;;;;;2.92;1.30;;;8.20;63.80;;;;;;4990434;28;115616;-83
2024/01/04 12:59:12;;;;;;;4.82;2.03;;;8.20;63.90;;;;;;4990659;28;114793;-82
2024/01/04 13:01:40;;;;;;;3.30;1.20;;;8.20;63.90;;;;;;4999282;28;114858;-82